createdAt,value
2022-10-06T00:04:37.140Z,15.95
2022-10-06T00:10:57.169Z,15.94
2022-10-06T00:17:20.201Z,15.88
2022-10-06T00:23:40.200Z,15.73
2022-10-06T00:30:03.203Z,15.21
2022-10-06T00:36:23.235Z,14.83
2022-10-06T00:42:46.221Z,14.66
2022-10-06T00:49:06.201Z,14.56
2022-10-06T00:55:29.259Z,14.5
2022-10-06T01:01:49.308Z,14.47
2022-10-06T01:08:12.163Z,14.47
2022-10-06T01:14:32.237Z,14.48
2022-10-06T01:20:55.153Z,14.5
2022-10-06T01:27:15.208Z,14.52
2022-10-06T01:33:38.333Z,14.55
2022-10-06T01:39:58.159Z,14.6
2022-10-06T01:46:21.303Z,14.65
2022-10-06T01:52:41.197Z,14.7
2022-10-06T01:59:04.190Z,14.7
2022-10-06T02:05:24.145Z,14.67
2022-10-06T02:11:47.220Z,14.61
2022-10-06T02:18:07.141Z,14.56
2022-10-06T02:24:30.165Z,14.51
2022-10-06T02:30:50.239Z,14.45
2022-10-06T02:37:13.150Z,14.38
2022-10-06T02:43:33.255Z,14.28
2022-10-06T02:49:56.225Z,14.17
2022-10-06T02:56:16.285Z,14.08
2022-10-06T03:02:39.341Z,14.01
2022-10-06T03:08:59.200Z,13.93
2022-10-06T03:15:22.254Z,13.83
2022-10-06T03:32:47.101Z,13.57
2022-10-06T03:39:10.156Z,13.46
2022-10-06T03:45:30.168Z,13.38
2022-10-06T03:51:53.201Z,13.29
2022-10-06T03:58:13.155Z,13.21
2022-10-06T04:04:36.239Z,13.17
2022-10-06T04:10:56.220Z,13.15
2022-10-06T04:17:19.271Z,13.09
2022-10-06T04:23:39.171Z,13.06
2022-10-06T04:30:02.184Z,13.03
2022-10-06T04:36:22.178Z,12.99
2022-10-06T04:42:45.186Z,12.96
2022-10-06T04:49:05.173Z,12.91
2022-10-06T04:55:28.213Z,12.85
2022-10-06T05:01:48.220Z,12.79
2022-10-06T05:08:11.195Z,12.76
2022-10-06T05:14:31.144Z,12.71
2022-10-06T05:20:54.159Z,12.68
2022-10-06T05:27:14.195Z,12.66
2022-10-06T05:33:37.187Z,12.63
2022-10-06T05:39:57.225Z,12.47
2022-10-06T05:46:20.435Z,12.2
2022-10-06T05:52:40.222Z,12.06
2022-10-06T05:59:03.191Z,11.99
2022-10-06T06:05:23.205Z,11.96
2022-10-06T06:11:46.198Z,11.95
2022-10-06T06:18:06.170Z,11.94
2022-10-06T06:24:29.259Z,11.94
2022-10-06T06:30:49.221Z,11.96
2022-10-06T06:37:15.192Z,11.98
2022-10-06T06:43:32.538Z,12.03
2022-10-06T06:49:55.214Z,12.09
2022-10-06T06:56:15.161Z,12.19
2022-10-06T07:02:38.220Z,12.29
2022-10-06T07:08:58.178Z,12.37
2022-10-06T07:15:21.220Z,12.46
2022-10-06T07:21:41.242Z,12.52
2022-10-06T07:28:04.280Z,12.53
2022-10-06T07:34:24.198Z,12.58
2022-10-06T07:41:07.554Z,12.69
2022-10-06T07:47:07.225Z,12.82
2022-10-06T07:53:30.193Z,12.92
2022-10-06T07:59:50.304Z,13.06
2022-10-06T08:06:13.194Z,13.27
2022-10-06T08:12:33.236Z,13.37
2022-10-06T08:18:56.297Z,13.51
2022-10-06T08:25:16.475Z,13.65
2022-10-06T08:41:26.113Z,14.09
2022-10-06T08:47:46.159Z,14.37
2022-10-06T08:54:09.309Z,14.56
2022-10-06T09:00:29.332Z,14.72
2022-10-06T09:06:52.375Z,14.88
2022-10-06T09:13:12.423Z,15.01
2022-10-06T09:19:35.234Z,15.13
2022-10-06T09:25:55.182Z,15.26
2022-10-06T09:32:18.147Z,15.46
2022-10-06T09:38:38.182Z,15.59
2022-10-06T09:45:01.188Z,15.9
2022-10-06T09:51:21.160Z,16.06
2022-10-06T09:57:44.232Z,16.3
2022-10-06T10:04:21.231Z,16.45
2022-10-06T10:10:27.260Z,16.51
2022-10-06T10:16:50.948Z,16.6
2022-10-06T10:23:10.167Z,16.82
2022-10-06T10:29:32.729Z,17.01
2022-10-06T10:35:53.251Z,16.87
2022-10-06T10:42:13.197Z,17.18
2022-10-06T10:48:36.205Z,17.44
2022-10-06T10:54:56.404Z,17.63
2022-10-06T11:01:19.215Z,17.85
2022-10-06T11:07:39.223Z,18.04
2022-10-06T11:14:02.208Z,18.17
2022-10-06T11:20:22.180Z,18.42
2022-10-06T11:26:45.187Z,18.6
2022-10-06T11:33:05.216Z,18.42
2022-10-06T11:39:28.184Z,18.42
2022-10-06T11:45:48.290Z,18.8
2022-10-06T11:52:11.199Z,19.05
2022-10-06T11:58:41.697Z,18.97
2022-10-06T12:04:54.187Z,19.03
2022-10-06T12:11:14.247Z,19.18
2022-10-06T12:17:37.275Z,19.46
2022-10-06T12:23:57.189Z,19.55
2022-10-06T12:30:20.255Z,19.78
2022-10-06T12:36:43.361Z,19.75
2022-10-06T12:43:03.221Z,19.66
2022-10-06T12:49:23.270Z,19.64
2022-10-06T12:55:46.157Z,19.81
2022-10-06T13:02:06.228Z,19.8
2022-10-06T13:08:29.187Z,19.94
2022-10-06T13:14:49.182Z,19.79
2022-10-06T13:21:12.233Z,19.64
2022-10-06T13:27:32.188Z,19.31
2022-10-06T13:44:00.135Z,19.33
2022-10-06T13:50:20.353Z,19.26
2022-10-06T13:56:43.152Z,19.07
2022-10-06T14:03:03.256Z,18.99
2022-10-06T14:09:26.154Z,18.89
2022-10-06T14:15:46.282Z,18.81
2022-10-06T14:22:09.238Z,18.87
2022-10-06T14:28:29.173Z,18.77
2022-10-06T14:34:52.211Z,18.72
2022-10-06T14:41:15.548Z,18.62
2022-10-06T14:47:35.225Z,18.58
2022-10-06T14:53:55.368Z,18.59
2022-10-06T15:00:18.227Z,18.64
2022-10-06T15:06:38.175Z,18.64
2022-10-06T15:13:01.176Z,18.6
2022-10-06T15:19:21.270Z,18.53
2022-10-06T15:25:44.160Z,18.39
2022-10-06T15:32:04.264Z,18.26
2022-10-06T15:38:27.438Z,18.15
2022-10-06T15:44:47.238Z,18.06
2022-10-06T15:51:10.225Z,17.98
2022-10-06T15:57:30.199Z,17.94
2022-10-06T16:03:53.243Z,17.85
2022-10-06T16:10:13.147Z,17.73
2022-10-06T16:16:38.857Z,17.62
2022-10-06T16:22:56.253Z,17.44
2022-10-06T16:29:19.254Z,17.23
2022-10-06T16:35:39.222Z,16.87
2022-10-06T16:42:02.207Z,16.51
2022-10-06T16:48:22.192Z,16.17
2022-10-06T16:54:45.249Z,15.8
2022-10-06T17:01:05.316Z,15.48
2022-10-06T17:07:28.244Z,15.19
2022-10-06T17:13:48.190Z,14.86
2022-10-06T17:20:11.190Z,14.62
2022-10-06T17:26:31.158Z,14.39
2022-10-06T17:32:54.304Z,14.17
2022-10-06T17:39:14.203Z,13.97
2022-10-06T17:45:37.198Z,13.75
2022-10-06T17:51:57.330Z,13.57
2022-10-06T17:58:20.249Z,13.42
2022-10-06T18:04:40.201Z,13.26
2022-10-06T18:11:03.238Z,13.11
2022-10-06T18:17:23.154Z,12.99
2022-10-06T18:23:46.219Z,12.8
2022-10-06T18:30:06.162Z,12.62
2022-10-06T18:46:34.097Z,12.16
2022-10-06T18:52:54.182Z,12.05
2022-10-06T18:59:17.177Z,11.99
2022-10-06T19:05:37.263Z,11.86
2022-10-06T19:12:00.163Z,11.77
2022-10-06T19:18:20.170Z,11.71
2022-10-06T19:24:43.193Z,11.64
2022-10-06T19:31:03.282Z,11.59
2022-10-06T19:37:26.196Z,11.51
2022-10-06T19:43:46.266Z,11.4
2022-10-06T19:50:12.381Z,11.33
2022-10-06T19:56:29.414Z,11.23
2022-10-06T20:02:52.262Z,11.16
2022-10-06T20:09:12.229Z,11.02
2022-10-06T20:15:35.155Z,10.86
2022-10-06T20:21:55.217Z,10.82
2022-10-06T20:28:18.334Z,10.63
2022-10-06T20:34:38.166Z,10.55
2022-10-06T20:41:01.413Z,10.49
2022-10-06T20:47:21.202Z,10.39
2022-10-06T20:53:44.208Z,10.31
2022-10-06T21:00:04.177Z,10.27
2022-10-06T21:06:27.414Z,10.2
2022-10-06T21:12:48.456Z,10.07
2022-10-06T21:19:12.478Z,9.98
2022-10-06T21:25:33.496Z,9.87
2022-10-06T21:31:57.493Z,9.79
2022-10-06T21:38:18.410Z,9.72
2022-10-06T21:44:41.420Z,9.68
2022-10-06T21:51:02.365Z,9.66
2022-10-06T21:57:25.466Z,9.61
2022-10-06T22:20:23.466Z,9.37
2022-10-06T22:26:44.384Z,9.24
2022-10-06T22:33:07.434Z,9.12
2022-10-06T22:39:28.512Z,9.04
2022-10-06T22:45:52.452Z,8.98
2022-10-06T22:52:13.419Z,8.94
2022-10-06T22:58:37.525Z,8.82
2022-10-06T23:04:58.483Z,8.74
2022-10-06T23:11:22.477Z,8.64
2022-10-06T23:17:43.653Z,8.57
2022-10-06T23:24:06.398Z,8.53
2022-10-06T23:30:26.465Z,8.49
2022-10-06T23:36:50.422Z,8.42
2022-10-06T23:43:10.501Z,8.36
2022-10-06T23:49:34.520Z,8.38
2022-10-06T23:55:55.447Z,8.32
